sensor_id;sensor_type;location;lat;lon;timestamp;pressure;altitude;pressure_sealevel;temperature;humidity
48636;BME280;34429;52.332;5.614;2023-01-24T00:01:23;103894.47;;;3.93;100.00
48636;BME280;34429;52.332;5.614;2023-01-24T00:03:52;103904.28;;;3.89;100.00
48636;BME280;34429;52.332;5.614;2023-01-24T00:06:20;103894.34;;;4.05;100.00
48636;BME280;34429;52.332;5.614;2023-01-24T00:08:49;103904.78;;;4.20;100.00
48636;BME280;34429;52.332;5.614;2023-01-24T00:11:17;103897.09;;;3.96;100.00
48636;BME280;34429;52.332;5.614;2023-01-24T00:13:45;103888.94;;;4.10;100.00
48636;BME280;34429;52.332;5.614;2023-01-24T00:16:18;103892.56;;;4.04;100.00
48636;BME280;34429;52.332;5.614;2023-01-24T00:18:48;103883.69;;;4.05;100.00
48636;BME280;34429;52.332;5.614;2023-01-24T00:21:18;103886.22;;;4.14;100.00
48636;BME280;34429;52.332;5.614;2023-01-24T00:23:48;103883.66;;;4.07;100.00
48636;BME280;34429;52.332;5.614;2023-01-24T00:26:18;103890.75;;;4.06;100.00
48636;BME280;34429;52.332;5.614;2023-01-24T00:28:47;103890.78;;;4.04;100.00
48636;BME280;34429;52.332;5.614;2023-01-24T00:31:18;103897.03;;;4.00;100.00
48636;BME280;34429;52.332;5.614;2023-01-24T00:33:47;103884.53;;;4.06;100.00
48636;BME280;34429;52.332;5.614;2023-01-24T00:36:16;103888.03;;;4.11;100.00
48636;BME280;34429;52.332;5.614;2023-01-24T00:38:44;103889.09;;;3.96;100.00
48636;BME280;34429;52.332;5.614;2023-01-24T00:41:12;103888.25;;;3.92;100.00
48636;BME280;34429;52.332;5.614;2023-01-24T00:43:41;103878.47;;;3.94;100.00
48636;BME280;34429;52.332;5.614;2023-01-24T00:46:09;103882.78;;;4.03;100.00
48636;BME280;34429;52.332;5.614;2023-01-24T00:48:40;103867.72;;;4.03;100.00
48636;BME280;34429;52.332;5.614;2023-01-24T00:51:08;103867.78;;;3.96;100.00
48636;BME280;34429;52.332;5.614;2023-01-24T00:53:37;103866.66;;;4.15;100.00
48636;BME280;34429;52.332;5.614;2023-01-24T00:56:06;103865.88;;;4.06;100.00
48636;BME280;34429;52.332;5.614;2023-01-24T00:58:35;103860.44;;;4.13;100.00
48636;BME280;34429;52.332;5.614;2023-01-24T01:01:03;103867.50;;;4.17;100.00
48636;BME280;34429;52.332;5.614;2023-01-24T01:03:32;103863.34;;;3.96;100.00
48636;BME280;34429;52.332;5.614;2023-01-24T01:06:05;103863.16;;;4.10;100.00
48636;BME280;34429;52.332;5.614;2023-01-24T01:08:34;103863.38;;;3.95;100.00
48636;BME280;34429;52.332;5.614;2023-01-24T01:11:02;103861.50;;;4.00;100.00
48636;BME280;34429;52.332;5.614;2023-01-24T01:13:31;103858.81;;;4.03;100.00
48636;BME280;34429;52.332;5.614;2023-01-24T01:16:01;103858.75;;;4.06;100.00
48636;BME280;34429;52.332;5.614;2023-01-24T01:18:30;103862.34;;;4.05;100.00
48636;BME280;34429;52.332;5.614;2023-01-24T01:20:58;103860.34;;;4.23;100.00
48636;BME280;34429;52.332;5.614;2023-01-24T01:23:29;103865.00;;;4.07;100.00
48636;BME280;34429;52.332;5.614;2023-01-24T01:26:01;103855.34;;;3.98;100.00
48636;BME280;34429;52.332;5.614;2023-01-24T01:28:30;103858.81;;;4.03;100.00
48636;BME280;34429;52.332;5.614;2023-01-24T01:30:58;103858.94;;;3.94;100.00
48636;BME280;34429;52.332;5.614;2023-01-24T01:33:27;103858.97;;;3.91;100.00
48636;BME280;34429;52.332;5.614;2023-01-24T01:35:55;103858.09;;;3.90;100.00
48636;BME280;34429;52.332;5.614;2023-01-24T01:38:24;103863.38;;;3.93;100.00
48636;BME280;34429;52.332;5.614;2023-01-24T01:40:56;103863.44;;;3.90;100.00
48636;BME280;34429;52.332;5.614;2023-01-24T01:43:27;103859.81;;;3.94;100.00
48636;BME280;34429;52.332;5.614;2023-01-24T01:45:58;103862.44;;;3.96;100.00
48636;BME280;34429;52.332;5.614;2023-01-24T01:48:34;103859.88;;;3.88;100.00
48636;BME280;34429;52.332;5.614;2023-01-24T01:51:09;103866.03;;;3.95;100.00
48636;BME280;34429;52.332;5.614;2023-01-24T01:53:42;103866.00;;;3.98;100.00
48636;BME280;34429;52.332;5.614;2023-01-24T01:56:21;103863.34;;;3.96;100.00
48636;BME280;34429;52.332;5.614;2023-01-24T01:58:51;103866.69;;;4.14;100.00
48636;BME280;34429;52.332;5.614;2023-01-24T02:01:20;103857.06;;;4.02;100.00
48636;BME280;34429;52.332;5.614;2023-01-24T02:03:51;103861.75;;;3.81;100.00
48636;BME280;34429;52.332;5.614;2023-01-24T02:06:33;103851.91;;;3.86;100.00
48636;BME280;34429;52.332;5.614;2023-01-24T02:09:07;103848.41;;;3.84;100.00
48636;BME280;34429;52.332;5.614;2023-01-24T02:11:39;103863.56;;;3.78;100.00
48636;BME280;34429;52.332;5.614;2023-01-24T02:14:11;103857.28;;;3.82;100.00
48636;BME280;34429;52.332;5.614;2023-01-24T02:17:07;103860.75;;;3.90;100.00
48636;BME280;34429;52.332;5.614;2023-01-24T02:19:50;103867.72;;;3.99;100.00
48636;BME280;34429;52.332;5.614;2023-01-24T02:22:25;103859.19;;;3.71;100.00
48636;BME280;34429;52.332;5.614;2023-01-24T02:25:03;103854.78;;;3.66;100.00
48636;BME280;34429;52.332;5.614;2023-01-24T02:27:36;103858.34;;;3.68;100.00
48636;BME280;34429;52.332;5.614;2023-01-24T02:30:09;103856.63;;;3.63;100.00
48636;BME280;34429;52.332;5.614;2023-01-24T02:32:38;103854.81;;;3.65;100.00
48636;BME280;34429;52.332;5.614;2023-01-24T02:35:19;103858.41;;;3.64;100.00
48636;BME280;34429;52.332;5.614;2023-01-24T02:37:49;103861.75;;;3.81;100.00
48636;BME280;34429;52.332;5.614;2023-01-24T02:40:18;103864.50;;;3.72;100.00
48636;BME280;34429;52.332;5.614;2023-01-24T02:42:49;103861.66;;;3.89;100.00
48636;BME280;34429;52.332;5.614;2023-01-24T02:45:21;103861.50;;;4.01;100.00
48636;BME280;34429;52.332;5.614;2023-01-24T02:47:52;103860.75;;;3.89;100.00
48636;BME280;34429;52.332;5.614;2023-01-24T02:50:23;103860.03;;;3.76;100.00
48636;BME280;34429;52.332;5.614;2023-01-24T02:52:52;103864.53;;;3.69;100.00
48636;BME280;34429;52.332;5.614;2023-01-24T02:55:34;103865.34;;;3.79;100.00
48636;BME280;34429;52.332;5.614;2023-01-24T02:58:27;103860.09;;;3.68;100.00
48636;BME280;34429;52.332;5.614;2023-01-24T03:00:52;103854.78;;;3.66;100.00
48636;BME280;34429;52.332;5.614;2023-01-24T03:03:21;103857.50;;;3.63;100.00
48636;BME280;34429;52.332;5.614;2023-01-24T03:05:49;103852.13;;;3.68;100.00
48636;BME280;34429;52.332;5.614;2023-01-24T03:08:24;103846.81;;;3.65;100.00
48636;BME280;34429;52.332;5.614;2023-01-24T03:10:54;103848.78;;;3.50;100.00
48636;BME280;34429;52.332;5.614;2023-01-24T03:13:27;103839.88;;;3.51;100.00
48636;BME280;34429;52.332;5.614;2023-01-24T03:16:09;103837.69;;;3.88;100.00
48636;BME280;34429;52.332;5.614;2023-01-24T03:18:50;103842.16;;;3.84;100.00
48636;BME280;34429;52.332;5.614;2023-01-24T03:21:32;103835.09;;;3.83;100.00
48636;BME280;34429;52.332;5.614;2023-01-24T03:24:13;103838.69;;;3.79;100.00
48636;BME280;34429;52.332;5.614;2023-01-24T03:26:54;103839.59;;;3.76;100.00
48636;BME280;34429;52.332;5.614;2023-01-24T03:29:37;103836.88;;;3.81;100.00
48636;BME280;34429;52.332;5.614;2023-01-24T03:32:18;103838.78;;;3.68;100.00
48636;BME280;34429;52.332;5.614;2023-01-24T03:34:59;103837.16;;;3.56;100.00
48636;BME280;34429;52.332;5.614;2023-01-24T03:37:27;103833.50;;;3.65;100.00
48636;BME280;34429;52.332;5.614;2023-01-24T03:40:10;103840.75;;;3.55;100.00
48636;BME280;34429;52.332;5.614;2023-01-24T03:42:39;103844.19;;;3.63;100.00
48636;BME280;34429;52.332;5.614;2023-01-24T03:45:18;103843.38;;;3.57;100.00
48636;BME280;34429;52.332;5.614;2023-01-24T03:47:49;103841.47;;;3.68;100.00
48636;BME280;34429;52.332;5.614;2023-01-24T03:50:32;103852.81;;;3.84;100.00
48636;BME280;34429;52.332;5.614;2023-01-24T03:53:14;103843.09;;;3.81;100.00
